sensor_id;sensor_type;location;lat;lon;timestamp;pressure;altitude;pressure_sealevel;temperature;humidity
77077;BME280;66003;52.286;104.306;2023-11-21T00:00:41;96939.66;;;-4.26;35.72
77077;BME280;66003;52.286;104.306;2023-11-21T00:03:07;96923.44;;;-4.29;35.81
77077;BME280;66003;52.286;104.306;2023-11-21T00:05:33;96925.69;;;-4.33;35.56
77077;BME280;66003;52.286;104.306;2023-11-21T00:08:00;96917.31;;;-4.23;35.68
77077;BME280;66003;52.286;104.306;2023-11-21T00:10:26;96924.09;;;-4.34;35.91
77077;BME280;66003;52.286;104.306;2023-11-21T00:12:54;96911.53;;;-4.38;35.46
77077;BME280;66003;52.286;104.306;2023-11-21T00:15:20;96913.59;;;-4.40;35.65
77077;BME280;66003;52.286;104.306;2023-11-21T00:17:47;96907.94;;;-4.44;35.82
77077;BME280;66003;52.286;104.306;2023-11-21T00:20:13;96915.41;;;-4.41;35.70
77077;BME280;66003;52.286;104.306;2023-11-21T00:22:39;96926.78;;;-4.40;36.21
77077;BME280;66003;52.286;104.306;2023-11-21T00:25:07;96924.50;;;-4.37;36.65
77077;BME280;66003;52.286;104.306;2023-11-21T00:27:35;96932.59;;;-4.32;35.86
77077;BME280;66003;52.286;104.306;2023-11-21T00:30:03;96942.16;;;-4.37;35.93
77077;BME280;66003;52.286;104.306;2023-11-21T00:32:33;96950.56;;;-4.47;36.16
77077;BME280;66003;52.286;104.306;2023-11-21T00:35:00;96962.31;;;-4.43;36.11
77077;BME280;66003;52.286;104.306;2023-11-21T00:37:26;96959.47;;;-4.41;36.33
77077;BME280;66003;52.286;104.306;2023-11-21T00:39:52;96974.63;;;-4.37;36.09
77077;BME280;66003;52.286;104.306;2023-11-21T00:42:18;96961.63;;;-4.32;36.36
77077;BME280;66003;52.286;104.306;2023-11-21T00:44:45;96964.00;;;-4.24;36.46
77077;BME280;66003;52.286;104.306;2023-11-21T00:47:11;96970.59;;;-4.08;36.52
77077;BME280;66003;52.286;104.306;2023-11-21T00:49:37;96966.75;;;-4.12;36.48
77077;BME280;66003;52.286;104.306;2023-11-21T00:52:06;96962.28;;;-4.12;36.36
77077;BME280;66003;52.286;104.306;2023-11-21T00:54:32;96958.72;;;-3.99;36.12
77077;BME280;66003;52.286;104.306;2023-11-21T00:56:59;96956.91;;;-3.98;36.09
77077;BME280;66003;52.286;104.306;2023-11-21T00:59:25;96959.53;;;-3.98;36.32
77077;BME280;66003;52.286;104.306;2023-11-21T01:01:51;96957.13;;;-4.00;35.95
77077;BME280;66003;52.286;104.306;2023-11-21T01:04:18;96963.38;;;-3.94;36.36
77077;BME280;66003;52.286;104.306;2023-11-21T01:06:44;96975.50;;;-3.87;36.03
77077;BME280;66003;52.286;104.306;2023-11-21T01:09:11;96971.41;;;-3.83;36.37
77077;BME280;66003;52.286;104.306;2023-11-21T01:11:38;96973.53;;;-3.73;35.76
77077;BME280;66003;52.286;104.306;2023-11-21T01:14:05;96973.34;;;-3.71;35.59
77077;BME280;66003;52.286;104.306;2023-11-21T01:16:32;96980.06;;;-3.76;35.67
77077;BME280;66003;52.286;104.306;2023-11-21T01:18:59;96971.16;;;-3.81;35.80
77077;BME280;66003;52.286;104.306;2023-11-21T01:21:25;96970.38;;;-3.82;35.86
77077;BME280;66003;52.286;104.306;2023-11-21T01:23:52;96972.22;;;-3.82;36.04
77077;BME280;66003;52.286;104.306;2023-11-21T01:26:18;96971.34;;;-3.76;36.02
77077;BME280;66003;52.286;104.306;2023-11-21T01:28:44;96974.44;;;-3.61;36.16
77077;BME280;66003;52.286;104.306;2023-11-21T01:31:10;96986.19;;;-3.57;35.83
77077;BME280;66003;52.286;104.306;2023-11-21T01:33:36;96998.66;;;-3.46;35.85
77077;BME280;66003;52.286;104.306;2023-11-21T01:36:02;96988.59;;;-3.55;35.92
77077;BME280;66003;52.286;104.306;2023-11-21T01:38:28;97007.41;;;-3.45;36.42
77077;BME280;66003;52.286;104.306;2023-11-21T01:40:55;97008.56;;;-3.34;36.04
77077;BME280;66003;52.286;104.306;2023-11-21T01:43:21;97013.38;;;-3.50;35.77
77077;BME280;66003;52.286;104.306;2023-11-21T01:45:47;97009.69;;;-3.49;35.89
77077;BME280;66003;52.286;104.306;2023-11-21T01:48:13;97012.78;;;-3.52;35.85
77077;BME280;66003;52.286;104.306;2023-11-21T01:50:41;97012.84;;;-3.58;36.04
77077;BME280;66003;52.286;104.306;2023-11-21T01:53:07;97020.88;;;-3.47;35.98
77077;BME280;66003;52.286;104.306;2023-11-21T01:55:34;97027.22;;;-3.54;36.09
77077;BME280;66003;52.286;104.306;2023-11-21T01:58:00;97032.78;;;-3.62;35.90
77077;BME280;66003;52.286;104.306;2023-11-21T02:00:27;97036.50;;;-3.70;35.79
77077;BME280;66003;52.286;104.306;2023-11-21T02:02:54;97045.81;;;-3.67;36.20
77077;BME280;66003;52.286;104.306;2023-11-21T02:05:20;97055.97;;;-3.64;36.58
77077;BME280;66003;52.286;104.306;2023-11-21T02:07:47;97059.63;;;-3.65;36.27
77077;BME280;66003;52.286;104.306;2023-11-21T02:10:16;97059.50;;;-3.52;36.41
77077;BME280;66003;52.286;104.306;2023-11-21T02:12:45;97061.34;;;-3.53;36.24
77077;BME280;66003;52.286;104.306;2023-11-21T02:15:15;97060.84;;;-3.43;35.81
77077;BME280;66003;52.286;104.306;2023-11-21T02:17:45;97069.56;;;-3.36;36.38
77077;BME280;66003;52.286;104.306;2023-11-21T02:20:13;97072.13;;;-3.29;36.31
77077;BME280;66003;52.286;104.306;2023-11-21T02:22:54;97074.38;;;-3.33;36.26
77077;BME280;66003;52.286;104.306;2023-11-21T02:25:25;97085.97;;;-3.34;36.93
77077;BME280;66003;52.286;104.306;2023-11-21T02:27:52;97074.56;;;-3.28;36.42
77077;BME280;66003;52.286;104.306;2023-11-21T02:30:21;97060.44;;;-3.22;36.40
77077;BME280;66003;52.286;104.306;2023-11-21T02:32:48;97063.16;;;-3.28;36.39
77077;BME280;66003;52.286;104.306;2023-11-21T02:35:14;97056.16;;;-3.41;36.84
77077;BME280;66003;52.286;104.306;2023-11-21T02:37:42;97049.13;;;-3.47;36.70
77077;BME280;66003;52.286;104.306;2023-11-21T02:40:10;97043.66;;;-3.52;36.73
77077;BME280;66003;52.286;104.306;2023-11-21T02:42:39;97068.88;;;-3.56;37.40
77077;BME280;66003;52.286;104.306;2023-11-21T02:45:07;97060.16;;;-3.57;37.23
77077;BME280;66003;52.286;104.306;2023-11-21T02:47:34;97051.59;;;-3.52;37.33
77077;BME280;66003;52.286;104.306;2023-11-21T02:50:00;97046.38;;;-3.59;37.65
77077;BME280;66003;52.286;104.306;2023-11-21T02:52:26;97038.66;;;-3.35;37.53
77077;BME280;66003;52.286;104.306;2023-11-21T02:54:53;97053.31;;;-3.21;37.23
77077;BME280;66003;52.286;104.306;2023-11-21T02:57:19;97047.47;;;-3.05;37.11
77077;BME280;66003;52.286;104.306;2023-11-21T02:59:45;97048.16;;;-2.91;37.02
77077;BME280;66003;52.286;104.306;2023-11-21T03:02:11;97040.22;;;-2.91;37.03
77077;BME280;66003;52.286;104.306;2023-11-21T03:04:37;97034.25;;;-2.87;37.42
77077;BME280;66003;52.286;104.306;2023-11-21T03:07:04;97045.44;;;-3.03;37.45
77077;BME280;66003;52.286;104.306;2023-11-21T03:09:31;97042.03;;;-3.10;37.58
77077;BME280;66003;52.286;104.306;2023-11-21T03:11:57;97048.22;;;-3.16;37.92
77077;BME280;66003;52.286;104.306;2023-11-21T03:14:23;97058.34;;;-2.95;37.33
77077;BME280;66003;52.286;104.306;2023-11-21T03:16:50;97060.06;;;-3.01;37.91
77077;BME280;66003;52.286;104.306;2023-11-21T03:19:16;97057.41;;;-3.01;38.00
77077;BME280;66003;52.286;104.306;2023-11-21T03:21:43;97074.34;;;-3.08;37.66
77077;BME280;66003;52.286;104.306;2023-11-21T03:24:09;97086.66;;;-2.77;37.33
77077;BME280;66003;52.286;104.306;2023-11-21T03:26:35;97088.19;;;-2.70;37.96
77077;BME280;66003;52.286;104.306;2023-11-21T03:29:03;97092.53;;;-2.57;37.41
77077;BME280;66003;52.286;104.306;2023-11-21T03:31:30;97090.69;;;-2.56;36.73
77077;BME280;66003;52.286;104.306;2023-11-21T03:33:57;97089.88;;;-2.57;37.16
77077;BME280;66003;52.286;104.306;2023-11-21T03:36:23;97097.53;;;-2.49;37.37
77077;BME280;66003;52.286;104.306;2023-11-21T03:38:50;97098.34;;;-2.48;36.95
77077;BME280;66003;52.286;104.306;2023-11-21T03:41:16;97091.50;;;-2.56;37.12
77077;BME280;66003;52.286;104.306;2023-11-21T03:43:43;97096.72;;;-2.49;37.26
77077;BME280;66003;52.286;104.306;2023-11-21T03:46:09;97087.09;;;-2.44;37.16
77077;BME280;66003;52.286;104.306;2023-11-21T03:48:36;97085.09;;;-2.30;37.25
77077;BME280;66003;52.286;104.306;2023-11-21T03:51:02;97075.94;;;-2.16;37.05
77077;BME280;66003;52.286;104.306;2023-11-21T03:53:28;97069.84;;;-2.16;37.03
77077;BME280;66003;52.286;104.306;2023-11-21T03:55:55;97058.88;;;-2.20;37.25
77077;BME280;66003;52.286;104.306;2023-11-21T03:58:21;97053.06;;;-2.10;37.21
77077;BME280;66003;52.286;104.306;2023-11-21T04:00:47;97047.94;;;-1.94;37.56
77077;BME280;66003;52.286;104.306;2023-11-21T04:03:18;97052.69;;;-1.84;37.06
77077;BME280;66003;52.286;104.306;2023-11-21T04:06:02;97059.94;;;-1.68;36.71
77077;BME280;66003;52.286;104.306;2023-11-21T04:08:29;97064.69;;;-1.70;36.79
77077;BME280;66003;52.286;104.306;2023-11-21T04:10:55;97076.34;;;-1.59;36.77
77077;BME280;66003;52.286;104.306;2023-11-21T04:13:21;97066.34;;;-1.34;36.73
77077;BME280;66003;52.286;104.306;2023-11-21T04:15:47;97081.78;;;-1.31;36.45
77077;BME280;66003;52.286;104.306;2023-11-21T04:18:13;97088.81;;;-1.36;36.48
77077;BME280;66003;52.286;104.306;2023-11-21T04:20:40;97077.72;;;-1.57;36.21
77077;BME280;66003;52.286;104.306;2023-11-21T04:23:06;97079.66;;;-1.64;36.14
77077;BME280;66003;52.286;104.306;2023-11-21T04:25:43;97074.94;;;-1.62;36.42
77077;BME280;66003;52.286;104.306;2023-11-21T04:28:09;97075.06;;;-1.57;35.92
77077;BME280;66003;52.286;104.306;2023-11-21T04:30:37;97063.66;;;-1.45;35.92
77077;BME280;66003;52.286;104.306;2023-11-21T04:33:05;97068.53;;;-1.31;35.88
77077;BME280;66003;52.286;104.306;2023-11-21T04:35:31;97069.78;;;-1.33;35.77
77077;BME280;66003;52.286;104.306;2023-11-21T04:37:57;97071.84;;;-1.59;35.71
77077;BME280;66003;52.286;104.306;2023-11-21T04:40:23;97066.63;;;-1.65;35.40
77077;BME280;66003;52.286;104.306;2023-11-21T04:42:49;97067.00;;;-1.62;35.23
77077;BME280;66003;52.286;104.306;2023-11-21T04:45:16;97069.97;;;-1.81;34.60
77077;BME280;66003;52.286;104.306;2023-11-21T04:47:42;97070.59;;;-1.98;34.98
77077;BME280;66003;52.286;104.306;2023-11-21T04:50:15;97083.03;;;-1.98;34.68
77077;BME280;66003;52.286;104.306;2023-11-21T04:52:41;97098.59;;;-1.90;34.98
77077;BME280;66003;52.286;104.306;2023-11-21T04:55:07;97086.94;;;-2.01;34.51
77077;BME280;66003;52.286;104.306;2023-11-21T04:57:36;97093.47;;;-1.73;34.53
77077;BME280;66003;52.286;104.306;2023-11-21T05:00:03;97093.94;;;-1.65;33.84
77077;BME280;66003;52.286;104.306;2023-11-21T05:02:32;97090.72;;;-1.67;33.62
77077;BME280;66003;52.286;104.306;2023-11-21T05:05:00;97096.13;;;-1.73;33.25
77077;BME280;66003;52.286;104.306;2023-11-21T05:07:35;97095.19;;;-1.79;32.75
77077;BME280;66003;52.286;104.306;2023-11-21T05:10:10;97094.69;;;-1.58;33.70
77077;BME280;66003;52.286;104.306;2023-11-21T05:12:41;97090.50;;;-1.53;32.99
77077;BME280;66003;52.286;104.306;2023-11-21T05:15:14;97089.84;;;-1.49;33.44
77077;BME280;66003;52.286;104.306;2023-11-21T05:17:41;97099.19;;;-1.46;33.31
77077;BME280;66003;52.286;104.306;2023-11-21T05:20:20;97100.56;;;-1.44;33.62
77077;BME280;66003;52.286;104.306;2023-11-21T05:22:47;97100.81;;;-1.34;33.66
77077;BME280;66003;52.286;104.306;2023-11-21T05:25:18;97103.34;;;-1.39;33.61
77077;BME280;66003;52.286;104.306;2023-11-21T05:27:51;97101.75;;;-1.28;34.04
77077;BME280;66003;52.286;104.306;2023-11-21T05:30:17;97105.53;;;-1.47;33.91
77077;BME280;66003;52.286;104.306;2023-11-21T05:32:50;97102.75;;;-1.41;33.65
77077;BME280;66003;52.286;104.306;2023-11-21T05:35:17;97100.91;;;-1.40;34.34
77077;BME280;66003;52.286;104.306;2023-11-21T05:37:45;97100.91;;;-1.40;34.12
77077;BME280;66003;52.286;104.306;2023-11-21T05:40:14;97099.31;;;-1.41;34.33
77077;BME280;66003;52.286;104.306;2023-11-21T05:42:40;97098.94;;;-1.45;34.25
77077;BME280;66003;52.286;104.306;2023-11-21T05:45:07;97082.56;;;-1.53;34.22
77077;BME280;66003;52.286;104.306;2023-11-21T05:47:43;97096.97;;;-1.61;34.45
77077;BME280;66003;52.286;104.306;2023-11-21T05:50:13;97098.34;;;-1.59;34.18
77077;BME280;66003;52.286;104.306;2023-11-21T05:52:47;97098.38;;;-1.47;34.82
77077;BME280;66003;52.286;104.306;2023-11-21T05:55:13;97103.22;;;-1.44;34.25
77077;BME280;66003;52.286;104.306;2023-11-21T05:57:43;97115.91;;;-1.46;34.20
77077;BME280;66003;52.286;104.306;2023-11-21T06:00:11;97102.50;;;-1.51;34.05
77077;BME280;66003;52.286;104.306;2023-11-21T06:02:47;97112.91;;;-1.49;33.80
77077;BME280;66003;52.286;104.306;2023-11-21T06:05:24;97115.19;;;-1.41;34.21
77077;BME280;66003;52.286;104.306;2023-11-21T06:07:58;97119.47;;;-1.40;33.70
77077;BME280;66003;52.286;104.306;2023-11-21T06:10:25;97130.72;;;-1.57;33.77
77077;BME280;66003;52.286;104.306;2023-11-21T06:12:54;97132.09;;;-1.66;34.03
77077;BME280;66003;52.286;104.306;2023-11-21T06:15:21;97128.31;;;-1.88;34.06
77077;BME280;66003;52.286;104.306;2023-11-21T06:17:49;97135.69;;;-1.90;34.43
77077;BME280;66003;52.286;104.306;2023-11-21T06:20:19;97130.94;;;-2.00;34.19
77077;BME280;66003;52.286;104.306;2023-11-21T06:22:54;97137.56;;;-1.79;34.07
77077;BME280;66003;52.286;104.306;2023-11-21T06:25:32;97133.03;;;-1.90;33.87
77077;BME280;66003;52.286;104.306;2023-11-21T06:28:02;97133.34;;;-1.98;34.50
77077;BME280;66003;52.286;104.306;2023-11-21T06:30:41;97125.78;;;-2.13;34.98
77077;BME280;66003;52.286;104.306;2023-11-21T06:33:13;97140.66;;;-2.12;35.07
77077;BME280;66003;52.286;104.306;2023-11-21T06:35:41;97138.97;;;-2.06;35.02
77077;BME280;66003;52.286;104.306;2023-11-21T06:38:21;97148.97;;;-2.08;35.00
77077;BME280;66003;52.286;104.306;2023-11-21T06:40:48;97159.88;;;-2.35;35.33
77077;BME280;66003;52.286;104.306;2023-11-21T06:43:20;97170.16;;;-2.27;34.89
77077;BME280;66003;52.286;104.306;2023-11-21T06:45:57;97160.84;;;-2.29;35.37
77077;BME280;66003;52.286;104.306;2023-11-21T06:48:23;97165.41;;;-2.18;35.14
77077;BME280;66003;52.286;104.306;2023-11-21T06:50:49;97172.47;;;-2.30;35.36
77077;BME280;66003;52.286;104.306;2023-11-21T06:53:15;97181.56;;;-2.44;37.05
77077;BME280;66003;52.286;104.306;2023-11-21T06:55:41;97177.28;;;-2.45;37.51
77077;BME280;66003;52.286;104.306;2023-11-21T06:58:07;97179.50;;;-2.42;38.72
77077;BME280;66003;52.286;104.306;2023-11-21T07:00:33;97186.94;;;-2.33;39.30
77077;BME280;66003;52.286;104.306;2023-11-21T07:03:00;97177.69;;;-2.42;38.61
77077;BME280;66003;52.286;104.306;2023-11-21T07:05:26;97184.78;;;-2.60;38.48
77077;BME280;66003;52.286;104.306;2023-11-21T07:07:52;97199.59;;;-2.78;40.64
77077;BME280;66003;52.286;104.306;2023-11-21T07:10:19;97188.13;;;-2.72;40.23
77077;BME280;66003;52.286;104.306;2023-11-21T07:12:45;97188.91;;;-2.89;39.43
77077;BME280;66003;52.286;104.306;2023-11-21T07:15:12;97184.00;;;-2.86;38.70
77077;BME280;66003;52.286;104.306;2023-11-21T07:17:38;97180.72;;;-3.06;40.39
77077;BME280;66003;52.286;104.306;2023-11-21T07:20:06;97190.44;;;-3.00;40.05
77077;BME280;66003;52.286;104.306;2023-11-21T07:22:32;97194.09;;;-3.26;40.46
77077;BME280;66003;52.286;104.306;2023-11-21T07:24:58;97200.97;;;-3.56;41.73
77077;BME280;66003;52.286;104.306;2023-11-21T07:27:24;97205.16;;;-3.74;42.23
77077;BME280;66003;52.286;104.306;2023-11-21T07:29:50;97231.66;;;-3.93;42.01
77077;BME280;66003;52.286;104.306;2023-11-21T07:32:16;97239.91;;;-4.34;43.26
77077;BME280;66003;52.286;104.306;2023-11-21T07:34:43;97243.38;;;-4.40;42.43
77077;BME280;66003;52.286;104.306;2023-11-21T07:37:09;97236.69;;;-4.50;43.86
77077;BME280;66003;52.286;104.306;2023-11-21T07:39:35;97240.75;;;-4.40;42.96
77077;BME280;66003;52.286;104.306;2023-11-21T07:42:02;97243.56;;;-4.29;43.69
77077;BME280;66003;52.286;104.306;2023-11-21T07:44:29;97250.41;;;-4.15;43.65
77077;BME280;66003;52.286;104.306;2023-11-21T07:46:55;97242.75;;;-4.36;42.23
77077;BME280;66003;52.286;104.306;2023-11-21T07:49:24;97242.13;;;-4.38;41.72
77077;BME280;66003;52.286;104.306;2023-11-21T07:51:52;97245.81;;;-4.46;41.66
77077;BME280;66003;52.286;104.306;2023-11-21T07:54:18;97252.31;;;-4.41;41.38
77077;BME280;66003;52.286;104.306;2023-11-21T07:56:44;97261.44;;;-4.44;41.48
77077;BME280;66003;52.286;104.306;2023-11-21T07:59:11;97269.78;;;-4.67;41.98
77077;BME280;66003;52.286;104.306;2023-11-21T08:01:38;97275.25;;;-4.75;41.67
77077;BME280;66003;52.286;104.306;2023-11-21T08:04:06;97287.63;;;-4.89;41.97
77077;BME280;66003;52.286;104.306;2023-11-21T08:06:32;97282.72;;;-5.25;42.14
77077;BME280;66003;52.286;104.306;2023-11-21T08:08:59;97298.03;;;-5.55;41.18
77077;BME280;66003;52.286;104.306;2023-11-21T08:11:25;97303.09;;;-5.53;40.91
77077;BME280;66003;52.286;104.306;2023-11-21T08:13:52;97304.91;;;-5.53;40.71
77077;BME280;66003;52.286;104.306;2023-11-21T08:16:20;97316.06;;;-5.51;41.59
77077;BME280;66003;52.286;104.306;2023-11-21T08:18:46;97314.56;;;-5.74;41.00
77077;BME280;66003;52.286;104.306;2023-11-21T08:21:13;97322.22;;;-5.79;40.34
77077;BME280;66003;52.286;104.306;2023-11-21T08:23:39;97326.41;;;-5.91;40.43
77077;BME280;66003;52.286;104.306;2023-11-21T08:26:06;97329.06;;;-6.25;39.87
77077;BME280;66003;52.286;104.306;2023-11-21T08:28:32;97332.03;;;-6.35;40.51
77077;BME280;66003;52.286;104.306;2023-11-21T08:30:58;97325.00;;;-6.56;40.48
77077;BME280;66003;52.286;104.306;2023-11-21T08:33:26;97340.28;;;-6.38;40.36
77077;BME280;66003;52.286;104.306;2023-11-21T08:35:52;97335.81;;;-6.44;40.30
77077;BME280;66003;52.286;104.306;2023-11-21T08:38:18;97341.63;;;-6.49;39.85
77077;BME280;66003;52.286;104.306;2023-11-21T08:40:45;97366.09;;;-6.48;39.77
77077;BME280;66003;52.286;104.306;2023-11-21T08:43:11;97360.28;;;-6.44;39.53
77077;BME280;66003;52.286;104.306;2023-11-21T08:45:38;97367.66;;;-6.33;40.27
77077;BME280;66003;52.286;104.306;2023-11-21T08:48:04;97372.25;;;-6.41;40.35
77077;BME280;66003;52.286;104.306;2023-11-21T08:50:31;97378.56;;;-6.36;40.16
77077;BME280;66003;52.286;104.306;2023-11-21T08:52:57;97378.03;;;-6.24;40.03
77077;BME280;66003;52.286;104.306;2023-11-21T08:55:23;97382.09;;;-6.22;40.13
77077;BME280;66003;52.286;104.306;2023-11-21T08:57:49;97381.50;;;-6.17;40.46
77077;BME280;66003;52.286;104.306;2023-11-21T09:00:16;97387.22;;;-6.14;40.08
77077;BME280;66003;52.286;104.306;2023-11-21T09:02:44;97389.22;;;-6.16;39.45
77077;BME280;66003;52.286;104.306;2023-11-21T09:05:13;97388.66;;;-6.11;39.42
77077;BME280;66003;52.286;104.306;2023-11-21T09:07:41;97394.38;;;-6.01;39.62
77077;BME280;66003;52.286;104.306;2023-11-21T09:10:08;97404.47;;;-6.33;39.68
77077;BME280;66003;52.286;104.306;2023-11-21T09:12:36;97416.03;;;-6.27;39.83
77077;BME280;66003;52.286;104.306;2023-11-21T09:15:05;97417.44;;;-6.31;39.33
77077;BME280;66003;52.286;104.306;2023-11-21T09:17:32;97418.25;;;-6.31;39.33
77077;BME280;66003;52.286;104.306;2023-11-21T09:19:58;97425.16;;;-6.30;39.65
77077;BME280;66003;52.286;104.306;2023-11-21T09:22:24;97432.13;;;-6.43;39.25
77077;BME280;66003;52.286;104.306;2023-11-21T09:24:51;97447.50;;;-6.40;39.86
77077;BME280;66003;52.286;104.306;2023-11-21T09:27:18;97465.91;;;-6.61;38.87
77077;BME280;66003;52.286;104.306;2023-11-21T09:29:44;97454.25;;;-6.52;38.79
77077;BME280;66003;52.286;104.306;2023-11-21T09:32:14;97457.47;;;-6.57;38.88
77077;BME280;66003;52.286;104.306;2023-11-21T09:34:42;97469.78;;;-6.36;38.81
77077;BME280;66003;52.286;104.306;2023-11-21T09:37:08;97467.25;;;-6.30;39.11
77077;BME280;66003;52.286;104.306;2023-11-21T09:39:35;97473.19;;;-6.21;38.49
77077;BME280;66003;52.286;104.306;2023-11-21T09:42:25;97473.22;;;-6.14;38.36
77077;BME280;66003;52.286;104.306;2023-11-21T09:45:12;97482.22;;;-6.02;38.61
77077;BME280;66003;52.286;104.306;2023-11-21T09:47:42;97484.63;;;-6.07;37.29
77077;BME280;66003;52.286;104.306;2023-11-21T09:50:09;97490.28;;;-6.10;38.24
77077;BME280;66003;52.286;104.306;2023-11-21T09:52:57;97502.75;;;-5.91;36.98
77077;BME280;66003;52.286;104.306;2023-11-21T09:55:26;97519.75;;;-6.15;36.62
77077;BME280;66003;52.286;104.306;2023-11-21T09:57:54;97533.38;;;-6.11;37.47
77077;BME280;66003;52.286;104.306;2023-11-21T10:00:22;97527.91;;;-5.88;37.18
77077;BME280;66003;52.286;104.306;2023-11-21T10:02:53;97526.38;;;-5.76;37.10
77077;BME280;66003;52.286;104.306;2023-11-21T10:05:20;97538.63;;;-5.90;37.37
77077;BME280;66003;52.286;104.306;2023-11-21T10:07:49;97550.16;;;-6.12;37.34
77077;BME280;66003;52.286;104.306;2023-11-21T10:10:19;97555.59;;;-6.14;37.69
77077;BME280;66003;52.286;104.306;2023-11-21T10:12:55;97567.25;;;-6.23;38.37
77077;BME280;66003;52.286;104.306;2023-11-21T10:15:23;97575.31;;;-6.46;38.49
77077;BME280;66003;52.286;104.306;2023-11-21T10:17:52;97590.31;;;-6.40;38.59
77077;BME280;66003;52.286;104.306;2023-11-21T10:20:25;97586.31;;;-6.72;39.26
77077;BME280;66003;52.286;104.306;2023-11-21T10:22:52;97605.16;;;-6.68;39.07
77077;BME280;66003;52.286;104.306;2023-11-21T10:25:19;97590.88;;;-6.80;39.91
77077;BME280;66003;52.286;104.306;2023-11-21T10:27:48;97615.88;;;-6.70;39.85
77077;BME280;66003;52.286;104.306;2023-11-21T10:30:16;97630.09;;;-6.79;40.52
77077;BME280;66003;52.286;104.306;2023-11-21T10:32:43;97625.28;;;-7.05;41.37
77077;BME280;66003;52.286;104.306;2023-11-21T10:35:10;97622.22;;;-6.93;41.18
77077;BME280;66003;52.286;104.306;2023-11-21T10:37:38;97639.50;;;-6.99;41.71
77077;BME280;66003;52.286;104.306;2023-11-21T10:40:10;97641.22;;;-7.06;42.07
77077;BME280;66003;52.286;104.306;2023-11-21T10:42:40;97648.41;;;-6.85;42.06
77077;BME280;66003;52.286;104.306;2023-11-21T10:45:07;97658.91;;;-6.85;42.99
77077;BME280;66003;52.286;104.306;2023-11-21T10:47:44;97659.44;;;-7.05;43.74
77077;BME280;66003;52.286;104.306;2023-11-21T10:50:10;97679.75;;;-6.84;42.76
77077;BME280;66003;52.286;104.306;2023-11-21T10:52:42;97687.53;;;-7.05;44.16
77077;BME280;66003;52.286;104.306;2023-11-21T10:55:17;97687.34;;;-7.04;44.56
77077;BME280;66003;52.286;104.306;2023-11-21T10:57:49;97708.19;;;-7.02;47.78
77077;BME280;66003;52.286;104.306;2023-11-21T11:00:17;97714.19;;;-6.93;46.74
77077;BME280;66003;52.286;104.306;2023-11-21T11:02:51;97707.88;;;-7.22;46.45
77077;BME280;66003;52.286;104.306;2023-11-21T11:05:20;97714.75;;;-7.21;45.78
77077;BME280;66003;52.286;104.306;2023-11-21T11:07:52;97731.41;;;-7.28;46.15
77077;BME280;66003;52.286;104.306;2023-11-21T11:10:24;97729.66;;;-7.36;46.24
77077;BME280;66003;52.286;104.306;2023-11-21T11:12:53;97738.28;;;-7.50;45.74
77077;BME280;66003;52.286;104.306;2023-11-21T11:15:20;97754.09;;;-7.58;46.54
77077;BME280;66003;52.286;104.306;2023-11-21T11:17:47;97760.91;;;-7.72;47.11
77077;BME280;66003;52.286;104.306;2023-11-21T11:20:15;97764.75;;;-7.83;47.38
77077;BME280;66003;52.286;104.306;2023-11-21T11:28:21;97772.31;;;-7.88;46.25
77077;BME280;66003;52.286;104.306;2023-11-21T11:39:33;97800.56;;;-8.06;43.12
77077;BME280;66003;52.286;104.306;2023-11-21T11:42:03;97806.91;;;-8.31;38.51
77077;BME280;66003;52.286;104.306;2023-11-21T11:50:12;97827.41;;;-8.51;35.56
77077;BME280;66003;52.286;104.306;2023-11-21T11:52:47;97835.97;;;-8.65;34.59
77077;BME280;66003;52.286;104.306;2023-11-21T11:55:23;97840.53;;;-8.84;34.67
77077;BME280;66003;52.286;104.306;2023-11-21T11:57:52;97848.06;;;-8.80;32.96
77077;BME280;66003;52.286;104.306;2023-11-21T12:02:53;97861.81;;;-8.70;33.89
77077;BME280;66003;52.286;104.306;2023-11-21T12:05:23;97872.81;;;-8.67;34.24
77077;BME280;66003;52.286;104.306;2023-11-21T12:07:54;97876.06;;;-8.81;33.85
77077;BME280;66003;52.286;104.306;2023-11-21T12:10:29;97892.59;;;-9.05;31.24
77077;BME280;66003;52.286;104.306;2023-11-21T12:15:24;97903.22;;;-9.06;32.24
77077;BME280;66003;52.286;104.306;2023-11-21T12:17:52;97898.94;;;-9.07;32.98
77077;BME280;66003;52.286;104.306;2023-11-21T12:20:20;97918.13;;;-8.99;34.22
77077;BME280;66003;52.286;104.306;2023-11-21T12:22:47;97925.34;;;-9.01;32.09
77077;BME280;66003;52.286;104.306;2023-11-21T12:25:24;97919.91;;;-9.07;34.06
77077;BME280;66003;52.286;104.306;2023-11-21T12:27:52;97936.09;;;-9.12;33.75
77077;BME280;66003;52.286;104.306;2023-11-21T12:30:21;97936.66;;;-9.42;32.62
77077;BME280;66003;52.286;104.306;2023-11-21T12:32:52;97953.03;;;-9.40;33.47
77077;BME280;66003;52.286;104.306;2023-11-21T12:35:20;97953.72;;;-9.30;33.08
77077;BME280;66003;52.286;104.306;2023-11-21T12:37:46;97954.22;;;-9.27;33.13
77077;BME280;66003;52.286;104.306;2023-11-21T12:40:14;97970.53;;;-9.41;32.24
77077;BME280;66003;52.286;104.306;2023-11-21T12:42:46;97973.38;;;-9.26;33.70
77077;BME280;66003;52.286;104.306;2023-11-21T12:47:45;97987.22;;;-9.34;32.62
77077;BME280;66003;52.286;104.306;2023-11-21T12:50:12;97995.59;;;-9.30;34.67
77077;BME280;66003;52.286;104.306;2023-11-21T12:52:42;98013.88;;;-9.72;33.90
77077;BME280;66003;52.286;104.306;2023-11-21T12:55:17;98013.34;;;-9.76;35.34
77077;BME280;66003;52.286;104.306;2023-11-21T12:57:45;98025.09;;;-9.80;34.05
77077;BME280;66003;52.286;104.306;2023-11-21T13:00:12;98022.56;;;-9.89;34.32
77077;BME280;66003;52.286;104.306;2023-11-21T13:02:51;98035.97;;;-10.28;32.90
77077;BME280;66003;52.286;104.306;2023-11-21T13:05:31;98028.97;;;-10.28;34.24
77077;BME280;66003;52.286;104.306;2023-11-21T13:08:02;98051.31;;;-10.33;34.11
77077;BME280;66003;52.286;104.306;2023-11-21T13:10:31;98061.00;;;-10.25;34.35
77077;BME280;66003;52.286;104.306;2023-11-21T13:12:58;98053.31;;;-10.27;34.38